createdAt,value
2018-09-28T00:01:21.143Z,12.60
2018-09-28T00:03:50.195Z,12.70
2018-09-28T00:06:19.203Z,12.70
2018-09-28T00:08:48.200Z,12.70
2018-09-28T00:11:17.485Z,12.70
2018-09-28T00:13:46.574Z,12.70
2018-09-28T00:16:15.552Z,12.70
2018-09-28T00:18:44.693Z,12.70
2018-09-28T00:21:13.768Z,12.50
2018-09-28T00:23:42.953Z,12.50
2018-09-28T00:26:12.092Z,12.50
2018-09-28T00:28:41.237Z,12.60
2018-09-28T00:31:10.363Z,12.50
2018-09-28T00:33:39.477Z,12.40
2018-09-28T00:36:08.537Z,12.40
2018-09-28T00:38:37.641Z,12.20
2018-09-28T00:41:06.767Z,12.20
2018-09-28T00:43:35.928Z,12.10
2018-09-28T00:46:05.028Z,12.00
2018-09-28T00:48:34.045Z,11.90
2018-09-28T00:51:02.991Z,12.00
2018-09-28T00:53:31.872Z,11.90
2018-09-28T00:56:00.900Z,11.90
2018-09-28T00:58:29.864Z,11.80
2018-09-28T01:00:58.852Z,11.70
2018-09-28T01:03:27.871Z,11.70
2018-09-28T01:05:56.832Z,11.60
2018-09-28T01:08:25.995Z,11.70
2018-09-28T01:10:55.052Z,11.60
2018-09-28T01:13:25.139Z,11.70
2018-09-28T01:15:54.257Z,11.70
2018-09-28T01:18:23.348Z,11.70
2018-09-28T01:20:52.428Z,11.70
2018-09-28T01:23:21.428Z,11.70
2018-09-28T01:25:50.526Z,11.70
2018-09-28T01:28:19.616Z,11.70
2018-09-28T01:30:48.606Z,11.70
2018-09-28T01:33:17.599Z,11.60
2018-09-28T01:35:46.620Z,11.70
2018-09-28T01:38:15.597Z,11.50
2018-09-28T01:40:44.592Z,11.50
2018-09-28T01:43:14.253Z,11.50
2018-09-28T01:45:43.293Z,11.60
2018-09-28T01:48:12.279Z,11.50
2018-09-28T01:50:41.273Z,11.50
2018-09-28T01:53:10.247Z,11.50
2018-09-28T01:55:39.451Z,11.40
2018-09-28T01:58:08.447Z,11.40
2018-09-28T02:00:37.544Z,11.50
2018-09-28T02:03:06.760Z,11.40
2018-09-28T02:05:35.754Z,11.40
2018-09-28T02:08:04.717Z,11.40
2018-09-28T02:10:33.832Z,11.40
2018-09-28T02:13:02.824Z,11.40
2018-09-28T02:15:31.803Z,11.40
2018-09-28T02:18:00.837Z,11.50
2018-09-28T02:20:29.768Z,11.50
2018-09-28T02:22:58.768Z,11.40
2018-09-28T02:25:27.902Z,11.40
2018-09-28T02:27:56.857Z,11.50
2018-09-28T02:30:26.060Z,11.50
2018-09-28T02:32:55.085Z,11.30
2018-09-28T02:35:24.061Z,11.40
2018-09-28T02:37:53.395Z,11.40
2018-09-28T02:40:22.371Z,11.40
2018-09-28T02:42:52.000Z,11.40
2018-09-28T02:45:21.053Z,11.40
2018-09-28T02:47:50.055Z,11.40
2018-09-28T02:50:19.042Z,11.30
2018-09-28T02:52:48.012Z,11.30
2018-09-28T02:55:17.028Z,11.30
2018-09-28T02:57:46.001Z,11.30
2018-09-28T03:00:15.084Z,11.30
2018-09-28T03:02:44.223Z,11.30
2018-09-28T03:05:13.287Z,11.30
2018-09-28T03:07:42.271Z,11.20
2018-09-28T03:10:11.533Z,11.30
2018-09-28T03:12:40.681Z,11.30
2018-09-28T03:15:09.868Z,11.30
2018-09-28T03:17:38.992Z,11.20
2018-09-28T03:20:08.217Z,11.20
2018-09-28T03:22:37.519Z,11.10
2018-09-28T03:25:06.685Z,11.10
2018-09-28T03:27:35.652Z,11.10
2018-09-28T03:30:05.231Z,11.10
2018-09-28T03:32:34.383Z,11.00
2018-09-28T03:35:03.590Z,11.00
2018-09-28T03:37:32.663Z,11.00
2018-09-28T03:40:01.768Z,10.90
2018-09-28T03:42:30.725Z,10.90
2018-09-28T03:44:59.840Z,10.90
2018-09-28T03:47:29.009Z,10.80
2018-09-28T03:49:58.154Z,10.70
2018-09-28T03:52:27.204Z,10.80
2018-09-28T03:54:56.325Z,10.80
2018-09-28T03:57:25.393Z,10.80
2018-09-28T03:59:54.401Z,10.70
2018-09-28T04:02:23.373Z,10.60
2018-09-28T04:04:52.373Z,10.60
2018-09-28T04:07:21.477Z,10.60
2018-09-28T04:09:50.569Z,10.60
2018-09-28T04:12:19.668Z,10.50
2018-09-28T04:14:48.672Z,10.50
2018-09-28T04:17:17.750Z,10.50
2018-09-28T04:19:46.735Z,10.60
2018-09-28T04:22:15.837Z,10.70
2018-09-28T04:24:44.944Z,10.70
2018-09-28T04:27:14.143Z,10.80
2018-09-28T04:29:43.120Z,10.80
2018-09-28T04:32:12.132Z,10.60
2018-09-28T04:34:41.131Z,10.60
2018-09-28T04:37:10.100Z,10.60
2018-09-28T04:39:39.122Z,10.60
2018-09-28T04:42:08.272Z,10.60
2018-09-28T04:44:37.266Z,10.60
2018-09-28T04:47:06.520Z,10.50
2018-09-28T04:49:35.473Z,10.40
2018-09-28T04:52:04.560Z,10.20
2018-09-28T04:54:33.693Z,10.30
2018-09-28T04:57:02.646Z,10.20
2018-09-28T04:59:31.641Z,10.20
2018-09-28T05:02:00.668Z,10.20
2018-09-28T05:04:29.619Z,10.20
2018-09-28T05:06:58.623Z,10.20
2018-09-28T05:09:27.758Z,10.20
2018-09-28T05:11:56.708Z,10.10
2018-09-28T05:14:25.686Z,10.20
2018-09-28T05:16:54.836Z,10.20
2018-09-28T05:19:23.923Z,10.30
2018-09-28T05:21:52.983Z,10.20
2018-09-28T05:24:22.156Z,9.90
2018-09-28T05:26:51.163Z,10.00
2018-09-28T05:29:20.145Z,10.10
2018-09-28T05:31:49.408Z,10.10
2018-09-28T05:34:18.361Z,10.10
2018-09-28T05:36:47.444Z,10.20
2018-09-28T05:39:16.595Z,10.20
2018-09-28T05:41:45.530Z,10.20
2018-09-28T05:44:14.528Z,10.20
2018-09-28T05:46:43.541Z,10.10
2018-09-28T05:49:12.509Z,9.90
2018-09-28T05:51:41.587Z,9.80
2018-09-28T05:54:10.768Z,9.80
2018-09-28T05:56:39.687Z,9.80
2018-09-28T05:59:14.021Z,9.90
2018-09-28T06:01:48.179Z,9.80
2018-09-28T06:04:22.332Z,9.80
2018-09-28T06:06:51.348Z,9.80
2018-09-28T06:09:20.407Z,9.80
2018-09-28T06:11:49.433Z,9.80
2018-09-28T06:14:18.415Z,9.80
2018-09-28T06:16:47.402Z,9.80
2018-09-28T06:19:16.537Z,9.70
2018-09-28T06:21:45.482Z,9.60
2018-09-28T06:24:14.496Z,9.60
2018-09-28T06:26:43.592Z,9.50
2018-09-28T06:29:12.564Z,9.60
2018-09-28T06:31:41.552Z,9.70
2018-09-28T06:34:10.547Z,9.60
2018-09-28T06:36:39.792Z,9.60
2018-09-28T06:39:09.076Z,9.70
2018-09-28T06:41:38.136Z,9.60
2018-09-28T06:44:07.121Z,9.60
2018-09-28T06:46:36.133Z,9.70
2018-09-28T06:49:05.112Z,9.70
2018-09-28T06:51:34.141Z,9.70
2018-09-28T06:54:03.265Z,9.70
2018-09-28T06:56:32.404Z,9.70
2018-09-28T06:59:01.491Z,9.80
2018-09-28T07:01:30.589Z,9.90
2018-09-28T07:03:59.784Z,10.00
2018-09-28T07:06:28.879Z,10.00
2018-09-28T07:08:57.893Z,10.10
2018-09-28T07:11:27.068Z,10.10
2018-09-28T07:13:56.069Z,10.10
2018-09-28T07:16:25.120Z,10.20
2018-09-28T07:18:54.047Z,10.20
2018-09-28T07:21:23.140Z,10.30
2018-09-28T07:23:52.257Z,10.30
2018-09-28T07:26:21.435Z,10.40
2018-09-28T07:28:50.570Z,10.40
2018-09-28T07:31:19.623Z,10.50
2018-09-28T07:33:48.716Z,10.50
2018-09-28T07:36:17.748Z,10.50
2018-09-28T07:38:46.700Z,10.60
2018-09-28T07:41:15.849Z,10.60
2018-09-28T07:43:44.891Z,10.70
2018-09-28T07:46:14.032Z,10.70
2018-09-28T07:48:43.083Z,10.80
2018-09-28T07:51:12.188Z,10.90
2018-09-28T07:53:41.200Z,10.90
2018-09-28T07:56:10.272Z,11.00
2018-09-28T07:58:39.376Z,11.10
2018-09-28T08:01:08.655Z,11.10
2018-09-28T08:03:37.761Z,11.20
2018-09-28T08:06:06.883Z,11.20
2018-09-28T08:08:36.154Z,11.30
2018-09-28T08:11:05.232Z,11.40
2018-09-28T08:13:34.250Z,11.50
2018-09-28T08:16:03.219Z,11.60
2018-09-28T08:18:32.248Z,11.60
2018-09-28T08:21:01.333Z,11.70
2018-09-28T08:23:30.402Z,11.80
2018-09-28T08:25:59.413Z,11.80
2018-09-28T08:28:28.411Z,11.90
2018-09-28T08:30:57.528Z,11.90
2018-09-28T08:33:26.579Z,12.00
2018-09-28T08:35:55.684Z,12.10
2018-09-28T08:38:24.693Z,12.20
2018-09-28T08:40:53.652Z,12.20
2018-09-28T08:43:22.868Z,12.30
2018-09-28T08:45:51.939Z,12.40
2018-09-28T08:48:20.952Z,12.40
2018-09-28T08:50:50.039Z,12.50
2018-09-28T08:53:19.023Z,12.50
2018-09-28T08:55:48.168Z,12.60
2018-09-28T08:58:17.228Z,12.70
2018-09-28T09:00:46.268Z,12.70
2018-09-28T09:03:15.192Z,12.80
2018-09-28T09:05:44.300Z,12.80
2018-09-28T09:08:13.333Z,12.90
2018-09-28T09:10:42.329Z,13.00
2018-09-28T09:13:11.301Z,13.00
2018-09-28T09:15:40.364Z,13.10
2018-09-28T09:18:09.584Z,13.10
2018-09-28T09:20:38.705Z,13.20
2018-09-28T09:23:07.877Z,13.30
2018-09-28T09:25:36.973Z,13.30
2018-09-28T09:28:05.944Z,13.40
2018-09-28T09:30:35.060Z,13.50
2018-09-28T09:33:04.764Z,13.60
2018-09-28T09:35:33.860Z,13.70
2018-09-28T09:38:03.040Z,13.70
2018-09-28T09:40:32.139Z,13.80
2018-09-28T09:43:01.238Z,13.90
2018-09-28T09:45:30.394Z,14.00
2018-09-28T09:47:59.528Z,14.00
2018-09-28T09:50:28.624Z,14.10
2018-09-28T09:52:57.616Z,14.20
2018-09-28T09:55:26.739Z,14.30
2018-09-28T09:57:55.806Z,14.40
2018-09-28T10:00:29.918Z,14.50
2018-09-28T10:03:01.827Z,14.80
2018-09-28T10:05:31.549Z,14.80
2018-09-28T10:08:00.606Z,14.90
2018-09-28T10:10:29.599Z,15.00
2018-09-28T10:12:58.681Z,15.30
2018-09-28T10:15:27.827Z,15.30
2018-09-28T10:17:56.965Z,15.30
2018-09-28T10:20:26.050Z,15.30
2018-09-28T10:22:55.064Z,15.50
2018-09-28T10:25:24.190Z,15.40
2018-09-28T10:27:53.329Z,15.50
2018-09-28T10:30:22.444Z,15.60
2018-09-28T10:32:51.453Z,15.80
2018-09-28T10:35:20.453Z,15.90
2018-09-28T10:37:49.426Z,16.00
2018-09-28T10:40:18.512Z,16.10
2018-09-28T10:42:47.608Z,16.30
2018-09-28T10:45:16.867Z,16.40
2018-09-28T10:47:45.984Z,16.50
2018-09-28T10:50:15.228Z,16.60
2018-09-28T10:52:44.417Z,16.80
2018-09-28T10:55:13.510Z,17.00
2018-09-28T10:57:42.776Z,17.00
2018-09-28T11:00:11.903Z,17.10
2018-09-28T11:02:41.083Z,17.30
2018-09-28T11:05:10.197Z,17.40
2018-09-28T11:07:39.176Z,17.70
2018-09-28T11:10:08.307Z,17.70
2018-09-28T11:12:37.372Z,17.80
2018-09-28T11:15:06.474Z,18.10
2018-09-28T11:17:35.580Z,18.30
2018-09-28T11:20:04.732Z,18.30
2018-09-28T11:22:33.833Z,18.30
2018-09-28T11:25:02.947Z,18.50
2018-09-28T11:27:32.065Z,18.60
2018-09-28T11:30:01.172Z,18.70
2018-09-28T11:32:30.326Z,18.80
2018-09-28T11:34:59.316Z,18.90
2018-09-28T11:37:28.410Z,19.00
2018-09-28T11:39:57.508Z,19.10
2018-09-28T11:42:26.654Z,19.30
2018-09-28T11:44:55.716Z,19.50
2018-09-28T11:47:24.686Z,19.60
2018-09-28T11:49:53.790Z,19.70
2018-09-28T11:52:22.881Z,19.90
2018-09-28T11:54:51.921Z,20.00
2018-09-28T11:57:21.110Z,20.10
2018-09-28T11:59:50.243Z,20.30
2018-09-28T12:02:19.345Z,20.40
2018-09-28T12:04:48.368Z,20.50
2018-09-28T12:07:17.372Z,20.70
2018-09-28T12:09:46.394Z,21.00
2018-09-28T12:12:15.365Z,21.10
2018-09-28T12:14:44.423Z,21.20
2018-09-28T12:17:13.496Z,21.20
2018-09-28T12:19:42.595Z,21.40
2018-09-28T12:22:11.612Z,21.50
2018-09-28T12:24:40.725Z,21.70
2018-09-28T12:27:09.740Z,21.80
2018-09-28T12:29:38.672Z,21.90
2018-09-28T12:32:07.812Z,22.00
2018-09-28T12:34:36.997Z,22.10
2018-09-28T12:37:06.738Z,22.20
2018-09-28T12:39:35.791Z,22.30
2018-09-28T12:42:04.987Z,22.50
2018-09-28T12:44:34.779Z,22.60
2018-09-28T13:11:32.813Z,23.70
2018-09-28T13:14:01.636Z,23.70
2018-09-28T13:16:30.652Z,23.70
2018-09-28T13:18:59.500Z,23.80
2018-09-28T13:21:28.312Z,24.00
2018-09-28T13:23:57.076Z,24.10
2018-09-28T13:26:26.290Z,24.20
2018-09-28T13:28:55.328Z,24.40
2018-09-28T13:31:24.673Z,24.50
2018-09-28T13:33:54.209Z,24.60
2018-09-28T13:36:23.397Z,24.70
2018-09-28T13:38:52.579Z,24.80
2018-09-28T13:41:21.649Z,24.90
2018-09-28T13:43:50.870Z,25.00
2018-09-28T13:46:18.977Z,25.10
2018-09-28T13:48:47.095Z,25.20
2018-09-28T13:51:15.047Z,25.20
2018-09-28T13:53:43.093Z,25.20
2018-09-28T13:56:11.240Z,25.30
2018-09-28T13:58:39.317Z,25.40
2018-09-28T14:01:07.276Z,25.40
2018-09-28T14:03:35.229Z,25.50
2018-09-28T14:06:03.413Z,25.50
2018-09-28T14:08:31.394Z,25.50
2018-09-28T14:11:00.066Z,25.60
2018-09-28T14:13:28.103Z,25.60
2018-09-28T14:15:56.079Z,25.70
2018-09-28T14:18:24.130Z,25.70
2018-09-28T14:20:52.087Z,25.70
2018-09-28T14:23:20.191Z,25.70
2018-09-28T14:25:48.164Z,25.80
2018-09-28T14:28:16.131Z,25.90
2018-09-28T14:30:44.131Z,25.90
2018-09-28T14:33:12.202Z,25.90
2018-09-28T14:35:40.166Z,26.00
2018-09-28T14:38:08.146Z,26.00
2018-09-28T14:40:40.904Z,26.00
2018-09-28T14:43:08.833Z,26.00
2018-09-28T14:45:36.803Z,26.10
2018-09-28T14:48:08.501Z,26.10
2018-09-28T14:50:36.598Z,26.20
2018-09-28T14:53:05.530Z,26.10
2018-09-28T14:55:34.384Z,26.10
2018-09-28T14:58:02.479Z,26.20
2018-09-28T15:00:30.538Z,26.10
2018-09-28T15:02:58.828Z,26.10
2018-09-28T15:05:27.854Z,26.10
2018-09-28T15:07:55.837Z,26.00
2018-09-28T15:10:23.920Z,26.10
2018-09-28T15:12:52.855Z,26.10
2018-09-28T15:15:21.843Z,26.10
2018-09-28T15:17:51.391Z,26.00
2018-09-28T15:20:20.357Z,26.00
2018-09-28T15:22:49.448Z,25.90
2018-09-28T15:25:18.276Z,25.90
2018-09-28T15:27:47.897Z,25.90
2018-09-28T15:30:17.338Z,25.90
2018-09-28T15:32:45.311Z,25.80
2018-09-28T15:35:13.587Z,25.80
2018-09-28T15:37:41.531Z,25.80
2018-09-28T15:40:09.543Z,25.80
2018-09-28T15:42:37.584Z,25.80
2018-09-28T15:45:05.664Z,25.70
2018-09-28T15:47:34.656Z,25.70
2018-09-28T15:50:03.558Z,25.60
2018-09-28T15:52:32.412Z,25.50
2018-09-28T15:55:01.438Z,25.40
2018-09-28T15:57:30.343Z,25.30
2018-09-28T15:59:59.407Z,25.20
2018-09-28T16:02:29.402Z,25.20
2018-09-28T16:04:58.359Z,25.00
2018-09-28T16:07:28.019Z,25.00
2018-09-28T16:09:56.996Z,24.90
2018-09-28T16:12:25.825Z,24.90
2018-09-28T16:14:53.996Z,24.90
2018-09-28T16:17:22.586Z,24.80
2018-09-28T16:19:50.838Z,24.80
2018-09-28T16:22:19.706Z,24.60
2018-09-28T16:24:48.642Z,24.60
2018-09-28T16:27:17.091Z,24.60
2018-09-28T16:29:45.070Z,24.40
2018-09-28T16:32:13.019Z,24.30
2018-09-28T16:34:40.983Z,24.20
2018-09-28T16:37:09.012Z,24.10
2018-09-28T16:39:37.025Z,24.10
2018-09-28T16:42:05.779Z,23.90
2018-09-28T16:44:34.565Z,23.80
2018-09-28T16:47:03.483Z,23.70
2018-09-28T16:49:31.926Z,23.50
2018-09-28T16:51:59.921Z,23.50
2018-09-28T16:54:27.958Z,23.40
2018-09-28T16:56:56.987Z,23.30
2018-09-28T16:59:24.946Z,23.20
2018-09-28T17:01:59.816Z,23.00
2018-09-28T17:04:28.766Z,23.00
2018-09-28T17:06:57.604Z,23.00
2018-09-28T17:09:27.255Z,23.00
2018-09-28T17:11:56.037Z,22.90
2018-09-28T17:14:24.989Z,22.80
2018-09-28T17:16:52.931Z,22.80
2018-09-28T17:19:20.903Z,22.80
2018-09-28T17:21:49.727Z,22.70
2018-09-28T17:24:18.556Z,22.60
2018-09-28T17:26:47.377Z,22.60
2018-09-28T17:29:16.180Z,22.60
2018-09-28T17:31:44.136Z,22.50
2018-09-28T17:34:12.097Z,22.50
2018-09-28T17:36:40.051Z,22.50
2018-09-28T17:39:08.769Z,22.40
2018-09-28T17:41:37.810Z,22.30
2018-09-28T17:44:06.729Z,22.40
2018-09-28T17:46:35.567Z,22.30
2018-09-28T17:49:04.340Z,22.20
2018-09-28T17:51:33.267Z,22.00
2018-09-28T17:55:45.455Z,22.00
2018-09-28T17:58:14.279Z,21.90
2018-09-28T18:00:43.102Z,21.90
2018-09-28T18:03:11.922Z,21.80
2018-09-28T18:05:40.705Z,21.80
2018-09-28T18:08:09.583Z,21.60
2018-09-28T18:10:38.397Z,21.60
2018-09-28T18:13:07.274Z,21.60
2018-09-28T18:15:36.233Z,21.60
2018-09-28T18:18:05.133Z,21.50
2018-09-28T18:20:34.041Z,21.50
2018-09-28T18:23:02.892Z,21.40
2018-09-28T18:25:31.779Z,21.30
2018-09-28T18:28:00.625Z,21.20
2018-09-28T18:30:29.549Z,21.20
2018-09-28T18:32:58.415Z,20.90
2018-09-28T18:35:27.204Z,20.90
2018-09-28T18:37:56.039Z,21.00
2018-09-28T18:40:24.049Z,21.00
2018-09-28T18:42:52.942Z,21.00
2018-09-28T18:45:21.832Z,21.00
2018-09-28T18:47:50.684Z,21.00
2018-09-28T18:50:19.650Z,20.90
2018-09-28T18:52:48.483Z,20.80
2018-09-28T18:55:17.614Z,20.80
2018-09-28T18:57:46.424Z,20.70
2018-09-28T19:00:15.284Z,20.70
2018-09-28T19:02:44.172Z,20.60
2018-09-28T19:05:13.015Z,20.60
2018-09-28T19:07:41.928Z,20.60
2018-09-28T19:22:56.208Z,20.40
2018-09-28T19:25:25.070Z,20.30
2018-09-28T19:27:53.851Z,20.30
2018-09-28T19:30:22.732Z,20.00
2018-09-28T19:32:51.673Z,20.00
2018-09-28T19:35:20.615Z,19.90
2018-09-28T19:37:49.479Z,20.00
2018-09-28T19:40:18.370Z,20.00
2018-09-28T19:42:47.187Z,19.70
2018-09-28T19:45:16.048Z,19.50
2018-09-28T19:47:44.888Z,19.40
2018-09-28T19:50:13.748Z,19.20
2018-09-28T19:52:42.589Z,19.20
2018-09-28T19:55:11.437Z,19.20
2018-09-28T19:57:40.337Z,19.20
2018-09-28T20:00:09.328Z,19.00
2018-09-28T20:02:38.167Z,19.00
2018-09-28T20:05:07.042Z,18.90
2018-09-28T20:07:35.887Z,19.00
2018-09-28T20:10:04.788Z,19.00
2018-09-28T20:12:33.647Z,18.90
2018-09-28T20:15:55.147Z,19.00
2018-09-28T20:18:24.194Z,19.00
2018-09-28T20:20:53.348Z,18.70
2018-09-28T20:23:22.447Z,18.70
2018-09-28T20:25:51.248Z,18.50
2018-09-28T20:28:20.129Z,18.50
2018-09-28T20:30:48.908Z,18.50
2018-09-28T20:33:17.908Z,18.50
2018-09-28T20:35:46.907Z,18.60
2018-09-28T20:38:15.709Z,18.50
2018-09-28T20:43:07.827Z,18.50
2018-09-28T20:45:36.645Z,18.40
2018-09-28T20:48:05.427Z,18.40
2018-09-28T20:50:34.242Z,18.40
2018-09-28T20:53:03.031Z,18.40
2018-09-28T20:55:31.854Z,18.30
2018-09-28T20:58:00.701Z,18.30
2018-09-28T21:00:29.565Z,18.10
2018-09-28T21:02:58.387Z,18.00
2018-09-28T21:05:27.196Z,18.00
2018-09-28T21:07:55.979Z,18.10
2018-09-28T21:10:24.777Z,18.00
2018-09-28T21:12:53.553Z,18.00
2018-09-28T21:15:22.407Z,18.00
2018-09-28T21:17:51.326Z,18.00
2018-09-28T21:20:20.241Z,17.90
2018-09-28T21:22:49.012Z,17.90
2018-09-28T21:25:17.851Z,17.90
2018-09-28T21:27:46.674Z,17.90
2018-09-28T21:30:15.478Z,17.80
2018-09-28T21:32:44.312Z,17.70
2018-09-28T21:35:13.195Z,17.60
2018-09-28T21:37:41.986Z,17.60
2018-09-28T21:40:10.837Z,17.60
2018-09-28T21:42:39.644Z,17.60
2018-09-28T21:45:08.517Z,17.60
2018-09-28T21:47:37.314Z,17.60
2018-09-28T21:50:06.185Z,17.30
2018-09-28T21:52:34.948Z,17.40
2018-09-28T21:55:03.784Z,17.40
2018-09-28T21:57:32.584Z,17.40
2018-09-28T22:00:01.353Z,17.40
2018-09-28T22:02:30.204Z,17.40
2018-09-28T22:04:58.987Z,17.40
2018-09-28T22:07:27.760Z,17.10
2018-09-28T22:09:56.568Z,17.10
2018-09-28T22:12:25.328Z,17.00
2018-09-28T22:14:54.171Z,16.80
2018-09-28T22:17:22.936Z,16.70
2018-09-28T22:19:51.768Z,16.50
2018-09-28T22:22:20.563Z,16.70
2018-09-28T22:24:49.347Z,16.90
2018-09-28T22:27:18.139Z,17.00
2018-09-28T22:29:46.940Z,17.00
2018-09-28T22:32:15.703Z,16.90
2018-09-28T22:34:44.506Z,16.90
2018-09-28T22:37:13.271Z,16.90
2018-09-28T22:39:42.075Z,16.90
2018-09-28T22:42:11.040Z,17.00
2018-09-28T22:44:39.832Z,16.90
2018-09-28T22:47:08.620Z,16.90
2018-09-28T22:49:37.381Z,17.00
2018-09-28T22:52:05.858Z,17.00
2018-09-28T22:54:34.638Z,16.90
2018-09-28T22:57:03.435Z,16.90
2018-09-28T22:59:32.211Z,16.80
2018-09-28T23:02:01.354Z,16.50
2018-09-28T23:04:30.465Z,16.50
2018-09-28T23:06:59.223Z,16.50
2018-09-28T23:09:28.024Z,16.50
2018-09-28T23:11:56.826Z,16.50
2018-09-28T23:14:25.633Z,16.50
2018-09-28T23:16:54.500Z,16.50
2018-09-28T23:19:23.314Z,16.60
2018-09-28T23:21:52.080Z,16.40
2018-09-28T23:24:21.319Z,16.40
2018-09-28T23:26:50.068Z,16.30
2018-09-28T23:29:18.871Z,16.30
2018-09-28T23:31:47.648Z,16.10
2018-09-28T23:34:16.453Z,16.10
2018-09-28T23:36:45.220Z,16.00
2018-09-28T23:39:14.000Z,16.10
2018-09-28T23:41:42.813Z,16.00
2018-09-28T23:44:11.743Z,16.10
2018-09-28T23:46:40.513Z,16.20
2018-09-28T23:49:09.327Z,16.30
2018-09-28T23:51:38.095Z,16.30
2018-09-28T23:54:06.877Z,16.30
2018-09-28T23:56:35.688Z,16.30
2018-09-28T23:59:04.520Z,16.40
